MSC Susanna — 3ECU4 — position and weather

sailwx.info

Track history (hours):
 
Tides and Currents Weather Stations Pressure Air Temp Water Temp Dewpoint Dewpoint Depression Visibility Wind Speed Wind Dir Waves Ship Positions

MSC Susanna

Last reported at 2017-Jun-20 21:01 UTC. Time now 2017-Jun-26 14:06 UTC.
Position N 01°55' E 102°20'.

Length 337 m; draft 13.8 m.

Type: Ship (hazmat cat A). MMSI: 371466000.

Date/timePositionNaut miles runAvg speedWind from/ knotsBaromVisibWave heightAir tempDewpointWater temp
2017-Jun-20 21:01N 01°55' E 102°20'117.3
2017-Jun-20 20:59N 01°54' E 102°21'917.2
2017-Jun-20 20:29N 01°50' E 102°28'917.7
2017-Jun-20 19:59N 01°46' E 102°36'1318.1
2017-Jun-20 19:16N 01°40' E 102°48'618.5
2017-Jun-20 18:58N 01°38' E 102°53'3818.6
2017-Jun-20 16:56N 01°15' E 103°24'817.6
2017-Jun-20 16:30N 01°13' E 103°31'815.6
2017-Jun-20 16:00N 01°11' E 103°38'713.5
2017-Jun-20 15:30N 01°09' E 103°45'510.3
2017-Jun-20 15:01N 01°11' E 103°49'5 9.8
2017-Jun-20 14:30N 01°15' E 103°46'1 1.0
2017-Jun-20 13:30N 01°16' E 103°46'0 0.0
2017-Jun-20 13:00N 01°16' E 103°46'0 0.0
2017-Jun-20 12:30N 01°16' E 103°46'0 0.0
2017-Jun-20 11:59N 01°16' E 103°46'0 0.0
2017-Jun-20 11:29N 01°16' E 103°46'0 0.0
2017-Jun-20 10:59N 01°16' E 103°46'0 0.0
2017-Jun-20 10:29N 01°16' E 103°46'0 0.0
2017-Jun-20 10:00N 01°16' E 103°46'0 0.0
2017-Jun-20 09:26N 01°16' E 103°46'0 0.0
2017-Jun-20 08:59N 01°16' E 103°46'0 0.0
2017-Jun-20 08:23N 01°16' E 103°46'0 0.0
2017-Jun-20 07:59N 01°16' E 103°46'0 0.0
2017-Jun-20 07:29N 01°16' E 103°46'0 0.0
2017-Jun-20 06:59N 01°16' E 103°46'0 0.1
2017-Jun-20 06:29N 01°16' E 103°46'0 0.1
2017-Jun-20 05:56N 01°16' E 103°46'0 0.0
2017-Jun-20 05:29N 01°16' E 103°46'0 0.0
2017-Jun-20 04:56N 01°16' E 103°46'0 0.0
2017-Jun-20 04:26N 01°16' E 103°46'0 0.0
2017-Jun-20 03:57N 01°16' E 103°46'0 0.0
2017-Jun-20 03:29N 01°16' E 103°46'0 0.0
2017-Jun-20 02:59N 01°16' E 103°46'0 0.0
2017-Jun-20 02:26N 01°16' E 103°46'0 0.0
2017-Jun-20 01:59N 01°16' E 103°46'0 0.0
2017-Jun-20 01:23N 01°16' E 103°46'0 0.0
2017-Jun-20 00:59N 01°16' E 103°46'0 0.0
2017-Jun-20 00:29N 01°16' E 103°46'0 0.0
2017-Jun-19 23:56N 01°16' E 103°46'0 0.0
2017-Jun-19 23:29N 01°16' E 103°46'0 0.0
2017-Jun-19 22:59N 01°16' E 103°46'0 0.0
2017-Jun-19 22:29N 01°16' E 103°46'0 0.0
2017-Jun-19 21:59N 01°16' E 103°46'0 0.0
2017-Jun-19 21:29N 01°16' E 103°46'0 0.0
2017-Jun-19 20:59N 01°16' E 103°46'0 0.0
2017-Jun-19 20:29N 01°16' E 103°46'0 0.0
2017-Jun-19 19:59N 01°16' E 103°46'0 0.0
2017-Jun-19 19:29N 01°16' E 103°46'0 0.0
2017-Jun-19 18:56N 01°16' E 103°46'0 0.0
2017-Jun-19 18:29N 01°16' E 103°46'0 0.0
2017-Jun-19 17:59N 01°16' E 103°46'0 0.0
2017-Jun-19 17:26N 01°16' E 103°46'0 0.0
2017-Jun-19 16:59N 01°16' E 103°46'0 0.1
2017-Jun-19 16:29N 01°16' E 103°46'0 0.1
2017-Jun-19 15:59N 01°16' E 103°46'0 0.0
2017-Jun-19 15:29N 01°16' E 103°46'0 0.0
2017-Jun-19 14:56N 01°16' E 103°46'0 0.0
2017-Jun-19 13:59N 01°16' E 103°46'0 0.0
2017-Jun-19 13:29N 01°16' E 103°46'0 0.0
2017-Jun-19 12:59N 01°16' E 103°46'0 0.0
2017-Jun-19 12:23N 01°16' E 103°46'0 0.0
2017-Jun-19 11:59N 01°16' E 103°46'0 0.0
2017-Jun-19 11:29N 01°16' E 103°46'0 0.0
2017-Jun-19 10:59N 01°16' E 103°46'0 0.0
2017-Jun-19 10:29N 01°16' E 103°46'0 0.0
2017-Jun-19 09:59N 01°16' E 103°46'0 0.1
2017-Jun-19 09:29N 01°16' E 103°46'0 0.0
2017-Jun-19 08:59N 01°16' E 103°46'0 0.1
2017-Jun-19 08:29N 01°16' E 103°46'0 0.1
2017-Jun-19 07:59N 01°16' E 103°46'0 0.0
2017-Jun-19 07:29N 01°16' E 103°46'1 1.2
2017-Jun-19 07:00N 01°16' E 103°46'2 4.1
2017-Jun-19 06:30N 01°14' E 103°47'5 9.4
2017-Jun-19 06:00N 01°13' E 103°52'3 6.3
2017-Jun-19 05:30N 01°14' E 103°55'4 7.7
2017-Jun-19 05:00N 01°15' E 103°59'510.5
2017-Jun-19 04:30N 01°16' E 104°04'  
2017-Jun-12 04:22N 24°01' E 118°36'  
Track history (hours):
 
Tides and Currents Weather Stations Pressure Air Temp Water Temp Dewpoint Dewpoint Depression Visibility Wind Speed Wind Dir Waves Ship Positions

MSC Susanna

Last reported at 2017-Jun-20 21:01 UTC. Time now 2017-Jun-26 14:06 UTC.
Position N 01°55' E 102°20'.

Length 337 m; draft 13.8 m.

Type: Ship (hazmat cat A). MMSI: 371466000.

Date/timePositionNaut miles runAvg speedWind from/ knotsBaromVisibWave heightAir tempDewpointWater temp
2017-Jun-20 21:01N 01°55' E 102°20'117.3
2017-Jun-20 20:59N 01°54' E 102°21'917.2
2017-Jun-20 20:29N 01°50' E 102°28'917.7
2017-Jun-20 19:59N 01°46' E 102°36'1318.1
2017-Jun-20 19:16N 01°40' E 102°48'618.5
2017-Jun-20 18:58N 01°38' E 102°53'3818.6
2017-Jun-20 16:56N 01°15' E 103°24'817.6
2017-Jun-20 16:30N 01°13' E 103°31'815.6
2017-Jun-20 16:00N 01°11' E 103°38'713.5
2017-Jun-20 15:30N 01°09' E 103°45'510.3
2017-Jun-20 15:01N 01°11' E 103°49'5 9.8
2017-Jun-20 14:30N 01°15' E 103°46'1 1.0
2017-Jun-20 13:30N 01°16' E 103°46'0 0.0
2017-Jun-20 13:00N 01°16' E 103°46'0 0.0
2017-Jun-20 12:30N 01°16' E 103°46'0 0.0
2017-Jun-20 11:59N 01°16' E 103°46'0 0.0
2017-Jun-20 11:29N 01°16' E 103°46'0 0.0
2017-Jun-20 10:59N 01°16' E 103°46'0 0.0
2017-Jun-20 10:29N 01°16' E 103°46'0 0.0
2017-Jun-20 10:00N 01°16' E 103°46'0 0.0
2017-Jun-20 09:26N 01°16' E 103°46'0 0.0
2017-Jun-20 08:59N 01°16' E 103°46'0 0.0
2017-Jun-20 08:23N 01°16' E 103°46'0 0.0
2017-Jun-20 07:59N 01°16' E 103°46'0 0.0
2017-Jun-20 07:29N 01°16' E 103°46'0 0.0
2017-Jun-20 06:59N 01°16' E 103°46'0 0.1
2017-Jun-20 06:29N 01°16' E 103°46'0 0.1
2017-Jun-20 05:56N 01°16' E 103°46'0 0.0
2017-Jun-20 05:29N 01°16' E 103°46'0 0.0
2017-Jun-20 04:56N 01°16' E 103°46'0 0.0
2017-Jun-20 04:26N 01°16' E 103°46'0 0.0
2017-Jun-20 03:57N 01°16' E 103°46'0 0.0
2017-Jun-20 03:29N 01°16' E 103°46'0 0.0
2017-Jun-20 02:59N 01°16' E 103°46'0 0.0
2017-Jun-20 02:26N 01°16' E 103°46'0 0.0
2017-Jun-20 01:59N 01°16' E 103°46'0 0.0
2017-Jun-20 01:23N 01°16' E 103°46'0 0.0
2017-Jun-20 00:59N 01°16' E 103°46'0 0.0
2017-Jun-20 00:29N 01°16' E 103°46'0 0.0
2017-Jun-19 23:56N 01°16' E 103°46'0 0.0
2017-Jun-19 23:29N 01°16' E 103°46'0 0.0
2017-Jun-19 22:59N 01°16' E 103°46'0 0.0
2017-Jun-19 22:29N 01°16' E 103°46'0 0.0
2017-Jun-19 21:59N 01°16' E 103°46'0 0.0
2017-Jun-19 21:29N 01°16' E 103°46'0 0.0
2017-Jun-19 20:59N 01°16' E 103°46'0 0.0
2017-Jun-19 20:29N 01°16' E 103°46'0 0.0
2017-Jun-19 19:59N 01°16' E 103°46'0 0.0
2017-Jun-19 19:29N 01°16' E 103°46'0 0.0
2017-Jun-19 18:56N 01°16' E 103°46'0 0.0
2017-Jun-19 18:29N 01°16' E 103°46'0 0.0
2017-Jun-19 17:59N 01°16' E 103°46'0 0.0
2017-Jun-19 17:26N 01°16' E 103°46'0 0.0
2017-Jun-19 16:59N 01°16' E 103°46'0 0.1
2017-Jun-19 16:29N 01°16' E 103°46'0 0.1
2017-Jun-19 15:59N 01°16' E 103°46'0 0.0
2017-Jun-19 15:29N 01°16' E 103°46'0 0.0
2017-Jun-19 14:56N 01°16' E 103°46'0 0.0
2017-Jun-19 13:59N 01°16' E 103°46'0 0.0
2017-Jun-19 13:29N 01°16' E 103°46'0 0.0
2017-Jun-19 12:59N 01°16' E 103°46'0 0.0
2017-Jun-19 12:23N 01°16' E 103°46'0 0.0
2017-Jun-19 11:59N 01°16' E 103°46'0 0.0
2017-Jun-19 11:29N 01°16' E 103°46'0 0.0
2017-Jun-19 10:59N 01°16' E 103°46'0 0.0
2017-Jun-19 10:29N 01°16' E 103°46'0 0.0
2017-Jun-19 09:59N 01°16' E 103°46'0 0.1
2017-Jun-19 09:29N 01°16' E 103°46'0 0.0
2017-Jun-19 08:59N 01°16' E 103°46'0 0.1
2017-Jun-19 08:29N 01°16' E 103°46'0 0.1
2017-Jun-19 07:59N 01°16' E 103°46'0 0.0
2017-Jun-19 07:29N 01°16' E 103°46'1 1.2
2017-Jun-19 07:00N 01°16' E 103°46'2 4.1
2017-Jun-19 06:30N 01°14' E 103°47'5 9.4
2017-Jun-19 06:00N 01°13' E 103°52'3 6.3
2017-Jun-19 05:30N 01°14' E 103°55'4 7.7
2017-Jun-19 05:00N 01°15' E 103°59'510.5
2017-Jun-19 04:30N 01°16' E 104°04'  
2017-Jun-12 04:22N 24°01' E 118°36'  

Dump ship's entire track history